Time,TemperatureF,DewpointF,PressureIn,WindDirection,WindDirectionDegrees,WindSpeedMPH,WindSpeedGustMPH,Humidity,HourlyPrecipIn,Conditions,Clouds,dailyrainin,SoftwareType,DateUTC
2013-09-16 00:24:00,60.0,60.0,-100.00,NNW,345,0.0,0.0,99,-99.99,,,-99.99,,2013-09-16 04:24:00,
2013-09-16 00:54:00,59.0,59.0,-100.00,NNW,345,0.0,0.0,99,-99.99,,,-99.99,,2013-09-16 04:54:00,
2013-09-16 01:22:00,59.0,59.0,-100.00,NNW,345,0.0,1.0,99,-99.99,,,-99.99,,2013-09-16 05:22:00,
2013-09-16 01:34:00,59.0,59.0,-100.00,NNW,345,0.0,1.0,99,-99.99,,,-99.99,,2013-09-16 05:34:00,
2013-09-16 01:52:00,58.0,58.0,-100.00,NNW,345,0.0,1.0,99,-99.99,,,-99.99,,2013-09-16 05:52:00,
2013-09-16 02:12:00,58.0,58.0,-100.00,NNW,345,0.0,0.0,99,-99.99,,,-99.99,,2013-09-16 06:12:00,
2013-09-16 02:52:00,58.0,58.0,-100.00,NNW,345,0.0,1.0,99,-99.99,,,-99.99,,2013-09-16 06:52:00,
2013-09-16 03:22:00,58.0,58.0,-100.00,NNW,345,0.0,1.0,99,-99.99,,,-99.99,,2013-09-16 07:22:00,
2013-09-16 03:52:00,58.0,57.0,-100.00,NNW,345,0.0,1.0,99,-99.99,,,-99.99,,2013-09-16 07:52:00,
2013-09-16 04:22:00,57.0,57.0,-100.00,NNW,345,0.0,0.0,99,-99.99,,,-99.99,,2013-09-16 08:22:00,
2013-09-16 04:52:00,57.0,57.0,-100.00,NNW,345,0.0,1.0,99,-99.99,,,-99.99,,2013-09-16 08:52:00,
2013-09-16 05:02:00,57.0,57.0,-100.00,NNW,345,0.0,1.0,99,-99.99,,,-99.99,,2013-09-16 09:02:00,
2013-09-16 05:22:00,58.0,57.0,-100.00,NNW,345,0.0,0.0,99,-99.99,,,-99.99,,2013-09-16 09:22:00,
2013-09-16 05:53:00,58.0,57.0,-100.00,NNW,345,0.0,0.0,99,-99.99,,,-99.99,,2013-09-16 09:53:00,
2013-09-16 06:23:00,58.0,58.0,-100.00,NNW,345,0.0,2.0,99,-99.99,,,-99.99,,2013-09-16 10:23:00,
2013-09-16 06:42:00,58.0,58.0,-100.00,NNW,345,0.0,3.0,99,-99.99,,,-99.99,,2013-09-16 10:42:00,
2013-09-16 06:53:00,58.0,58.0,-100.00,NNW,345,0.0,3.0,99,-99.99,,,-99.99,,2013-09-16 10:53:00,
2013-09-16 07:22:00,57.0,57.0,-100.00,NNW,345,1.0,2.0,99,-99.99,,,-99.99,,2013-09-16 11:22:00,
2013-09-16 07:52:00,57.0,57.0,-100.00,NNW,345,0.0,2.0,99,-99.99,,,-99.99,,2013-09-16 11:52:00,
2013-09-16 08:22:00,59.0,59.0,-100.00,NNW,345,1.0,3.0,99,-99.99,,,-99.99,,2013-09-16 12:22:00,
2013-09-16 08:32:00,59.0,59.0,-100.00,NNW,345,1.0,3.0,99,-99.99,,,-99.99,,2013-09-16 12:32:00,
2013-09-16 08:52:00,60.0,60.0,-100.00,NW,310,1.0,5.0,99,-99.99,,,-99.99,,2013-09-16 12:52:00,
2013-09-16 09:02:00,60.0,60.0,-100.00,NW,310,1.0,5.0,99,-99.99,,,-99.99,,2013-09-16 13:02:00,
2013-09-16 09:22:00,60.0,59.0,-100.00,NW,310,1.0,4.0,96,-99.99,,,-99.99,,2013-09-16 13:22:00,
2013-09-16 09:42:00,61.0,59.0,-100.00,NW,310,1.0,5.0,93,-99.99,,,-99.99,,2013-09-16 13:42:00,
2013-09-16 09:52:00,60.0,58.0,-100.00,NW,310,1.0,2.0,93,-99.99,,,-99.99,,2013-09-16 13:52:00,
2013-09-16 10:22:00,60.0,59.0,-100.00,NNE,30,4.0,14.0,99,-99.99,,,-99.99,,2013-09-16 14:22:00,
2013-09-16 10:52:00,61.0,59.0,-100.00,North,0,6.0,12.0,93,-99.99,,,-99.99,,2013-09-16 14:52:00,
2013-09-16 11:22:00,62.0,58.0,-100.00,North,0,6.0,11.0,87,-99.99,,,-99.99,,2013-09-16 15:22:00,
2013-09-16 12:23:00,62.0,58.0,-100.00,NE,35,5.0,9.0,84,-99.99,,,-99.99,,2013-09-16 16:23:00,
2013-09-16 12:52:00,62.0,59.0,-100.00,ENE,65,7.0,12.0,92,-99.99,,,-99.99,,2013-09-16 16:52:00,
2013-09-16 13:23:00,61.0,58.0,-100.00,NE,35,11.0,16.0,92,-99.99,,,-99.99,,2013-09-16 17:23:00,
2013-09-16 13:33:00,61.0,58.0,-100.00,NE,35,11.0,16.0,92,-99.99,,,-99.99,,2013-09-16 17:33:00,
2013-09-16 13:53:00,61.0,57.0,-100.00,NNE,30,14.0,21.0,89,-99.99,,,-99.99,,2013-09-16 17:53:00,
2013-09-16 14:22:00,60.0,56.0,-100.00,NE,35,11.0,18.0,84,-99.99,,,-99.99,,2013-09-16 18:22:00,
2013-09-16 14:52:00,61.0,54.0,-100.00,NE,55,9.0,15.0,79,-99.99,,,-99.99,,2013-09-16 18:52:00,
2013-09-16 15:22:00,61.0,55.0,-100.00,NE,50,9.0,14.0,81,-99.99,,,-99.99,,2013-09-16 19:22:00,
2013-09-16 15:42:00,61.0,55.0,-100.00,ENE,75,9.0,12.0,81,-99.99,,,-99.99,,2013-09-16 19:42:00,
2013-09-16 15:53:00,61.0,55.0,-100.00,ENE,75,9.0,12.0,81,-99.99,,,-99.99,,2013-09-16 19:53:00,
2013-09-16 16:22:00,59.0,55.0,-100.00,NE,35,7.0,13.0,86,-99.99,,,-99.99,,2013-09-16 20:22:00,
2013-09-16 16:52:00,60.0,56.0,-100.00,ENE,65,7.0,11.0,85,-99.99,,,-99.99,,2013-09-16 20:52:00,
2013-09-16 17:22:00,60.0,56.0,-100.00,ENE,70,6.0,9.0,84,-99.99,,,-99.99,,2013-09-16 21:22:00,
2013-09-16 17:55:00,60.0,53.0,-100.00,ENE,60,11.0,15.0,77,-99.99,,,-99.99,,2013-09-16 21:55:00,
2013-09-16 18:24:00,59.0,52.0,-100.00,NE,45,10.0,15.0,76,-99.99,,,-99.99,,2013-09-16 22:24:00,
2013-09-16 18:53:00,60.0,52.0,-100.00,NE,55,6.0,12.0,75,-99.99,,,-99.99,,2013-09-16 22:53:00,
2013-09-16 19:02:00,60.0,52.0,-100.00,NE,55,6.0,12.0,75,-99.99,,,-99.99,,2013-09-16 23:02:00,
2013-09-16 19:22:00,59.0,51.0,-100.00,NNE,25,8.0,12.0,75,-99.99,,,-99.99,,2013-09-16 23:22:00,
2013-09-16 19:34:00,59.0,51.0,-100.00,NNE,25,8.0,12.0,75,-99.99,,,-99.99,,2013-09-16 23:34:00,
2013-09-16 19:52:00,58.0,52.0,-100.00,ENE,60,7.0,12.0,81,-99.99,,,-99.99,,2013-09-16 23:52:00,
2013-09-16 20:22:00,56.0,53.0,-100.00,NE,55,4.0,7.0,86,-99.99,,,-99.99,,2013-09-17 00:22:00,
2013-09-16 20:32:00,56.0,53.0,-100.00,NE,55,4.0,7.0,86,-99.99,,,-99.99,,2013-09-17 00:32:00,
2013-09-16 20:52:00,55.0,53.0,-100.00,ENE,60,3.0,6.0,90,-99.99,,,-99.99,,2013-09-17 00:52:00,
2013-09-16 21:02:00,55.0,53.0,-100.00,ENE,60,3.0,6.0,90,-99.99,,,-99.99,,2013-09-17 01:02:00,
2013-09-16 21:21:00,54.0,53.0,-100.00,NE,45,2.0,4.0,94,-99.99,,,-99.99,,2013-09-17 01:21:00,
2013-09-16 21:52:00,54.0,53.0,-100.00,ENE,65,3.0,4.0,94,-99.99,,,-99.99,,2013-09-17 01:52:00,
2013-09-16 22:22:00,53.0,51.0,-100.00,ENE,70,1.0,2.0,96,-99.99,,,-99.99,,2013-09-17 02:22:00,
2013-09-16 22:52:00,53.0,53.0,-100.00,SSE,150,1.0,2.0,98,-99.99,,,-99.99,,2013-09-17 02:52:00,
2013-09-16 23:02:00,53.0,53.0,-100.00,SSE,150,1.0,2.0,98,-99.99,,,-99.99,,2013-09-17 03:02:00,
2013-09-16 23:23:00,54.0,54.0,-100.00,SE,130,1.0,2.0,99,-99.99,,,-99.99,,2013-09-17 03:23:00,
2013-09-16 23:34:00,54.0,54.0,-100.00,SE,130,1.0,2.0,99,-99.99,,,-99.99,,2013-09-17 03:34:00,
2013-09-16 23:54:00,53.0,53.0,-100.00,SE,130,1.0,3.0,99,-99.99,,,-99.99,,2013-09-17 03:54:00,